Time;durP1;ratioP1;P1;durP2;ratioP2;P2;SDS_P1;SDS_P2;PMS_P1;PMS_P2;Temp;Humidity;BMP_temperature;BMP_pressure;BME280_temperature;BME280_humidity;BME280_pressure;Samples;Min_cycle;Max_cycle;Signal;HPM_P1;HPM_P2
2024/03/20 00:02:11;;;;;;;7.22;3.90;;;14.40;99.90;;;;;;7398950;19;20040;-75
2024/03/20 00:04:39;;;;;;;14.52;4.57;;;14.40;99.90;;;;;;7381741;19;20007;-77
2024/03/20 00:07:08;;;;;;;19.38;4.50;;;14.40;99.90;;;;;;7385768;19;20316;-77
2024/03/20 00:09:41;;;;;;;10.32;4.85;;;14.40;99.90;;;;;;7385090;19;20011;-77
2024/03/20 00:12:10;;;;;;;18.20;5.40;;;14.40;99.90;;;;;;7385841;19;20023;-77
2024/03/20 00:14:39;;;;;;;11.23;4.93;;;14.40;99.90;;;;;;7407509;19;20287;-76
2024/03/20 00:17:08;;;;;;;9.98;4.40;;;14.40;99.90;;;;;;7384424;19;20019;-76
2024/03/20 00:19:36;;;;;;;12.50;5.47;;;14.50;99.90;;;;;;7384154;19;19999;-75
2024/03/20 00:22:05;;;;;;;16.25;5.03;;;14.40;99.90;;;;;;7386224;19;20031;-75
2024/03/20 00:24:34;;;;;;;13.70;4.95;;;14.40;99.90;;;;;;7387651;19;20358;-76
2024/03/20 00:27:07;;;;;;;15.88;5.30;;;14.40;99.90;;;;;;7392357;19;20003;-75
2024/03/20 00:29:35;;;;;;;17.67;5.07;;;14.40;99.90;;;;;;7411022;19;20014;-76
2024/03/20 00:32:04;;;;;;;10.43;4.78;;;14.40;99.90;;;;;;7391481;19;20010;-76
2024/03/20 00:34:33;;;;;;;10.88;4.00;;;14.40;99.90;;;;;;7387908;19;20006;-76
2024/03/20 00:37:02;;;;;;;6.55;3.70;;;14.30;99.90;;;;;;7388748;19;20007;-76
2024/03/20 00:39:33;;;;;;;15.00;3.50;;;14.30;99.90;;;;;;7384302;19;20392;-76
2024/03/20 00:42:05;;;;;;;;;;;14.30;99.90;;;;;;7386846;19;20028;-76
2024/03/20 00:44:36;;;;;;;8.18;3.53;;;14.30;99.90;;;;;;7406419;19;19931;-75
2024/03/20 00:47:05;;;;;;;9.75;3.70;;;14.20;99.90;;;;;;7383172;19;20008;-75
2024/03/20 00:49:35;;;;;;;5.88;3.58;;;14.20;99.90;;;;;;7383524;19;20287;-75
2024/03/20 00:52:06;;;;;;;11.23;5.18;;;14.20;99.90;;;;;;7385837;19;20003;-76
2024/03/20 00:54:35;;;;;;;11.20;4.90;;;14.20;99.90;;;;;;7384926;19;20023;-77
2024/03/20 00:57:07;;;;;;;10.35;4.28;;;14.20;99.90;;;;;;7385035;19;20028;-76
2024/03/20 00:59:35;;;;;;;9.25;4.75;;;14.10;99.90;;;;;;7412029;19;20023;-76
2024/03/20 01:02:06;;;;;;;8.30;4.38;;;14.10;99.90;;;;;;7388250;19;20023;-76
2024/03/20 01:04:35;;;;;;;8.73;3.95;;;14.10;99.90;;;;;;7384542;19;20003;-76
2024/03/20 01:07:04;;;;;;;9.50;3.90;;;14.00;99.90;;;;;;7384362;19;20013;-77
2024/03/20 01:09:33;;;;;;;6.90;3.80;;;14.00;99.90;;;;;;7383919;19;20066;-76
2024/03/20 01:12:02;;;;;;;10.93;4.35;;;14.00;99.90;;;;;;7384133;19;20011;-76
2024/03/20 01:14:35;;;;;;;12.30;5.15;;;14.00;99.90;;;;;;7404513;19;20142;-76
2024/03/20 01:17:04;;;;;;;14.38;4.32;;;14.00;99.90;;;;;;7382654;19;20007;-76
2024/03/20 01:19:33;;;;;;;7.85;4.30;;;14.00;99.90;;;;;;7382746;19;20388;-75
2024/03/20 01:22:02;;;;;;;11.52;4.22;;;14.00;99.90;;;;;;7383712;19;20027;-75
2024/03/20 01:24:31;;;;;;;8.52;4.40;;;13.90;99.90;;;;;;7381304;19;20034;-76
2024/03/20 01:27:00;;;;;;;12.95;4.40;;;14.00;99.90;;;;;;7382913;19;20017;-76
2024/03/20 01:29:29;;;;;;;11.65;4.40;;;13.90;99.90;;;;;;7404192;19;20011;-75
2024/03/20 01:32:00;;;;;;;17.48;4.40;;;13.90;99.90;;;;;;7382455;19;20013;-75
2024/03/20 01:34:33;;;;;;;14.27;5.15;;;13.90;99.90;;;;;;7382655;19;20002;-75
2024/03/20 01:37:02;;;;;;;14.05;4.50;;;13.90;99.90;;;;;;7385774;19;20024;-75
2024/03/20 01:39:29;;;;;;;10.65;4.88;;;13.90;99.90;;;;;;7387972;19;20040;-76
2024/03/20 01:41:57;;;;;;;10.45;5.30;;;13.90;99.90;;;;;;7384908;19;20365;-76
2024/03/20 01:44:26;;;;;;;11.38;4.55;;;13.90;99.90;;;;;;7406878;19;20027;-76
2024/03/20 01:46:59;;;;;;;12.55;4.78;;;13.90;99.90;;;;;;7381894;19;20010;-76
2024/03/20 01:49:30;;;;;;;12.32;5.00;;;13.90;99.90;;;;;;7384894;19;20113;-77
2024/03/20 01:51:59;;;;;;;;;;;13.80;99.90;;;;;;7383359;19;20107;-77
2024/03/20 01:54:33;;;;;;;9.13;3.55;;;13.80;99.90;;;;;;7382518;19;20183;-76
2024/03/20 01:57:01;;;;;;;11.15;3.80;;;13.80;99.90;;;;;;7379197;19;20019;-76
2024/03/20 01:59:30;;;;;;;8.30;4.13;;;13.70;99.90;;;;;;7403651;19;20019;-76
2024/03/20 02:01:59;;;;;;;10.23;4.57;;;13.70;99.90;;;;;;7381077;19;20047;-76
2024/03/20 02:04:30;;;;;;;12.85;5.03;;;13.70;99.90;;;;;;7381418;19;20019;-75
2024/03/20 02:06:59;;;;;;;14.15;4.93;;;13.70;99.90;;;;;;7385756;19;20024;-75
2024/03/20 02:09:28;;;;;;;9.77;4.95;;;13.60;99.90;;;;;;7383910;19;20006;-75
2024/03/20 02:11:57;;;;;;;8.13;3.67;;;13.70;99.90;;;;;;7402999;19;20019;-75
2024/03/20 02:14:26;;;;;;;14.20;4.68;;;13.60;99.90;;;;;;7380627;19;20235;-76
2024/03/20 02:16:54;;;;;;;7.93;4.75;;;13.60;99.90;;;;;;7382073;19;20006;-75
2024/03/20 02:19:25;;;;;;;14.07;4.15;;;13.60;99.90;;;;;;7383456;19;20003;-76
2024/03/20 02:21:57;;;;;;;9.07;4.25;;;13.60;99.90;;;;;;7381065;19;20360;-75
2024/03/20 02:24:27;;;;;;;8.85;4.22;;;13.60;99.90;;;;;;7383880;19;20429;-75
2024/03/20 02:26:56;;;;;;;11.05;5.13;;;13.60;99.90;;;;;;7400852;19;20017;-75
2024/03/20 02:29:25;;;;;;;12.68;4.80;;;13.60;99.90;;;;;;7381001;19;20019;-75
2024/03/20 02:31:55;;;;;;;15.13;4.85;;;13.50;99.90;;;;;;7380438;19;20027;-75
2024/03/20 02:34:24;;;;;;;8.07;4.10;;;13.50;99.90;;;;;;7379997;19;20010;-77
2024/03/20 02:36:56;;;;;;;8.23;4.57;;;13.50;99.90;;;;;;7380168;19;20030;-77
2024/03/20 02:39:24;;;;;;;8.60;4.85;;;13.50;99.90;;;;;;7380502;19;20023;-76
2024/03/20 02:41:53;;;;;;;11.52;4.78;;;13.50;99.90;;;;;;7405305;19;20066;-76
2024/03/20 02:44:24;;;;;;;13.73;4.70;;;13.50;99.90;;;;;;7381699;19;20126;-76
2024/03/20 02:46:53;;;;;;;15.23;4.63;;;13.50;99.90;;;;;;7379742;19;20015;-76
2024/03/20 02:49:21;;;;;;;11.13;4.50;;;13.50;99.90;;;;;;7379096;19;20240;-76
2024/03/20 02:51:52;;;;;;;8.15;5.15;;;13.50;99.90;;;;;;7381754;19;20010;-76
2024/03/20 02:54:25;;;;;;;7.97;4.32;;;13.50;99.90;;;;;;7385862;19;20020;-76
2024/03/20 02:56:54;;;;;;;8.05;4.07;;;13.50;99.90;;;;;;7406224;19;20017;-76
2024/03/20 02:59:23;;;;;;;9.95;4.82;;;13.40;99.90;;;;;;7381019;19;20256;-75
2024/03/20 03:01:52;;;;;;;15.02;4.30;;;13.40;99.90;;;;;;7384599;19;20438;-77
2024/03/20 03:04:18;;;;;;;12.93;4.30;;;13.40;99.90;;;;;;7384170;19;20418;-76
2024/03/20 03:06:48;;;;;;;10.38;4.43;;;13.30;99.90;;;;;;7383360;19;20018;-76
2024/03/20 03:09:19;;;;;;;10.65;4.32;;;13.30;99.90;;;;;;7383824;19;20024;-76
2024/03/20 03:11:51;;;;;;;14.35;4.63;;;13.40;99.90;;;;;;7410356;19;20006;-76
2024/03/20 03:14:20;;;;;;;10.82;4.63;;;13.30;99.90;;;;;;7381386;19;20010;-76
2024/03/20 03:16:49;;;;;;;8.52;4.32;;;13.40;99.90;;;;;;7378816;19;20072;-76
2024/03/20 03:19:17;;;;;;;9.43;4.28;;;13.40;99.90;;;;;;7378316;19;20066;-76
2024/03/20 03:21:46;;;;;;;11.68;4.70;;;13.40;99.90;;;;;;7378585;19;20342;-75
2024/03/20 03:24:15;;;;;;;16.48;4.85;;;13.40;99.90;;;;;;7378644;19;20019;-76
2024/03/20 03:26:44;;;;;;;11.80;5.30;;;13.40;99.90;;;;;;7399149;19;20007;-76
2024/03/20 03:29:15;;;;;;;11.45;5.53;;;13.40;99.90;;;;;;7378426;19;20018;-75
2024/03/20 03:31:44;;;;;;;8.63;4.80;;;13.40;99.90;;;;;;7381084;19;20006;-76
2024/03/20 03:34:13;;;;;;;15.40;4.78;;;13.40;99.90;;;;;;7384416;19;20042;-75
2024/03/20 03:36:41;;;;;;;10.27;5.25;;;13.40;99.90;;;;;;7384678;19;20010;-76
2024/03/20 03:39:11;;;;;;;21.05;4.97;;;13.40;99.90;;;;;;7377063;19;20015;-76
2024/03/20 03:41:39;;;;;;;9.60;5.10;;;13.40;99.90;;;;;;7402081;19;20021;-76
2024/03/20 03:44:08;;;;;;;9.75;5.05;;;13.40;99.90;;;;;;7379263;19;20062;-75
2024/03/20 03:46:41;;;;;;;12.38;4.35;;;13.40;99.90;;;;;;7378543;19;20062;-76
2024/03/20 03:49:09;;;;;;;11.63;5.20;;;13.30;99.90;;;;;;7378879;19;20615;-76
2024/03/20 03:51:38;;;;;;;9.57;5.03;;;13.40;99.90;;;;;;7378354;19;20016;-76
2024/03/20 03:54:07;;;;;;;18.17;5.20;;;13.30;99.90;;;;;;7400093;19;20062;-76
2024/03/20 03:56:36;;;;;;;14.20;4.78;;;13.30;99.90;;;;;;7377982;19;20011;-76
2024/03/20 03:59:04;;;;;;;16.55;4.57;;;13.30;99.90;;;;;;7378036;19;20006;-77
2024/03/20 04:01:33;;;;;;;10.93;4.72;;;13.30;99.90;;;;;;7378191;19;20027;-76
2024/03/20 04:04:07;;;;;;;8.15;3.92;;;13.30;99.90;;;;;;7377981;19;20062;-76
2024/03/20 04:06:35;;;;;;;15.38;4.80;;;13.30;99.90;;;;;;7380588;19;20374;-76
2024/03/20 04:09:05;;;;;;;9.68;4.57;;;13.30;99.90;;;;;;7403041;19;20385;-77
2024/03/20 04:11:34;;;;;;;14.85;4.70;;;13.20;99.90;;;;;;7378909;19;20003;-76
2024/03/20 04:14:03;;;;;;;9.20;4.53;;;13.20;99.90;;;;;;7378603;19;20006;-76
2024/03/20 04:16:32;;;;;;;12.15;4.95;;;13.20;99.90;;;;;;7378044;19;20007;-76
2024/03/20 04:19:02;;;;;;;12.52;5.10;;;13.20;99.90;;;;;;7377914;19;20062;-76
2024/03/20 04:21:37;;;;;;;13.35;5.55;;;13.20;99.90;;;;;;7377879;19;20010;-76
2024/03/20 04:24:06;;;;;;;11.00;6.03;;;13.10;99.90;;;;;;7398045;19;20017;-76
2024/03/20 04:26:35;;;;;;;12.57;5.63;;;13.10;99.90;;;;;;7374719;19;20019;-76
2024/03/20 04:29:04;;;;;;;13.27;5.60;;;13.10;99.90;;;;;;7376212;19;20011;-76
2024/03/20 04:31:33;;;;;;;10.15;5.35;;;13.00;99.90;;;;;;7377416;19;20014;-76
2024/03/20 04:34:01;;;;;;;20.40;5.55;;;13.00;99.90;;;;;;7377018;19;20002;-76
2024/03/20 04:36:34;;;;;;;9.60;5.30;;;13.10;99.90;;;;;;7380631;19;20513;-76
2024/03/20 04:39:05;;;;;;;15.85;5.18;;;13.10;99.90;;;;;;7398813;19;20243;-77
